^^
Saratoga-Weather Station Historical Data
Daily Summary for June 19, 2021 Units:  Both    English   Metric
Daily Weekly Monthly Yearly Custom
  High: Low: Average:
Temperature: 73.6 °F /  23.1 °C 62.8 °F /  17.1 °C 67.6 °F /  19.8 °C
Dew Point: 63.7 °F /  17.6 °C 59.7 °F /  15.4 °C 61.2 °F /  16.2 °C
Humidity: 90% 70% 80%
Wind Speed: 8.1mph /  13km/h - 1.4mph /  2.3km/h
Wind Gust: 9mph /  14.5km/h - -
Wind- - West
Pressure: 30 in /  1014.6 hPa 29.9 in /  1012.9 hPa -
Precipitation: 0 in /  0.0 mm    
Historical Graphs
 
 
Tabular Data for June 19, 2021
Time Temperature Dew Point Pressure Wind Wind Speed Wind Gust Humidity Rainfall Rate (Hourly) solar
00:00 73.6 °F /  23.1 °C 63.7 °F /  17.6 °C 29.9in /  1012.9hPa West 2mph /  3.2km/h 4mph /  6.4km/h 71% 0in /  0.0mm 0 W/m2
00:05 73.4 °F /  23 °C 63.5 °F /  17.5 °C 29.9in /  1012.9hPa WNW 2mph /  3.2km/h 2mph /  3.2km/h 71% 0in /  0.0mm 0 W/m2
00:10 73.2 °F /  22.9 °C 63.3 °F /  17.4 °C 29.9in /  1012.9hPa WSW 0.9mph /  1.4km/h 4mph /  6.4km/h 71% 0in /  0.0mm 0 W/m2
00:15 72.9 °F /  22.7 °C 63 °F /  17.2 °C 29.9in /  1012.9hPa West 2mph /  3.2km/h 4mph /  6.4km/h 71% 0in /  0.0mm 0 W/m2
00:20 72.7 °F /  22.6 °C 63.1 °F /  17.3 °C 29.9in /  1012.9hPa West 2mph /  3.2km/h 3mph /  4.8km/h 72% 0in /  0.0mm 0 W/m2
00:25 72.7 °F /  22.6 °C 63.1 °F /  17.3 °C 29.9in /  1012.9hPa West 2.9mph /  4.7km/h 6mph /  9.7km/h 72% 0in /  0.0mm 0 W/m2
00:30 72.7 °F /  22.6 °C 63.1 °F /  17.3 °C 29.9in /  1012.9hPa West 0.9mph /  1.4km/h 6mph /  9.7km/h 72% 0in /  0.0mm 0 W/m2
00:35 72.7 °F /  22.6 °C 63.1 °F /  17.3 °C 29.9in /  1012.9hPa West 2.9mph /  4.7km/h 4mph /  6.4km/h 72% 0in /  0.0mm 0 W/m2
00:40 72.5 °F /  22.5 °C 63 °F /  17.2 °C 29.9in /  1013.2hPa WNW 2mph /  3.2km/h 5mph /  8km/h 72% 0in /  0.0mm 0 W/m2
00:45 72.3 °F /  22.4 °C 62.8 °F /  17.1 °C 29.9in /  1013.2hPa WSW 2mph /  3.2km/h 7mph /  11.3km/h 72% 0in /  0.0mm 0 W/m2
00:50 72.3 °F /  22.4 °C 62.8 °F /  17.1 °C 29.9in /  1013.2hPa WSW 2.9mph /  4.7km/h 4mph /  6.4km/h 72% 0in /  0.0mm 0 W/m2
00:55 72.1 °F /  22.3 °C 62.6 °F /  17 °C 29.9in /  1013.5hPa West 2mph /  3.2km/h 7mph /  11.3km/h 72% 0in /  0.0mm 0 W/m2
01:00 72.1 °F /  22.3 °C 62.6 °F /  17 °C 29.9in /  1013.5hPa WSW 4mph /  6.4km/h 5mph /  8km/h 72% 0in /  0.0mm 0 W/m2
01:05 72 °F /  22.2 °C 62.4 °F /  16.9 °C 29.9in /  1013.5hPa West 2.9mph /  4.7km/h 4mph /  6.4km/h 72% 0in /  0.0mm 0 W/m2
01:10 72 °F /  22.2 °C 62.4 °F /  16.9 °C 29.9in /  1013.5hPa WSW 2.9mph /  4.7km/h 7mph /  11.3km/h 72% 0in /  0.0mm 0 W/m2
01:15 72 °F /  22.2 °C 62.1 °F /  16.7 °C 29.9in /  1013.5hPa West 2mph /  3.2km/h 6mph /  9.7km/h 71% 0in /  0.0mm 0 W/m2
01:20 72 °F /  22.2 °C 62.1 °F /  16.7 °C 29.9in /  1013.5hPa SSW 2.9mph /  4.7km/h 4mph /  6.4km/h 71% 0in /  0.0mm 0 W/m2
01:25 72 °F /  22.2 °C 61.7 °F /  16.5 °C 29.9in /  1013.5hPa West 4mph /  6.4km/h 6mph /  9.7km/h 70% 0in /  0.0mm 0 W/m2
01:30 72 °F /  22.2 °C 61.7 °F /  16.5 °C 29.9in /  1013.5hPa West 2.9mph /  4.7km/h 4mph /  6.4km/h 70% 0in /  0.0mm 0 W/m2
01:35 71.8 °F /  22.1 °C 61.9 °F /  16.6 °C 29.9in /  1013.5hPa West 2.9mph /  4.7km/h 3mph /  4.8km/h 71% 0in /  0.0mm 0 W/m2
01:40 71.8 °F /  22.1 °C 61.9 °F /  16.6 °C 29.9in /  1013.5hPa West 2mph /  3.2km/h 5mph /  8km/h 71% 0in /  0.0mm 0 W/m2
01:45 71.6 °F /  22 °C 61.7 °F /  16.5 °C 29.9in /  1013.5hPa West 2.9mph /  4.7km/h 4mph /  6.4km/h 71% 0in /  0.0mm 0 W/m2
01:50 71.4 °F /  21.9 °C 61.5 °F /  16.4 °C 29.9in /  1013.5hPa West 4mph /  6.4km/h 4mph /  6.4km/h 71% 0in /  0.0mm 0 W/m2
01:55 71.2 °F /  21.8 °C 61.7 °F /  16.5 °C 29.9in /  1013.5hPa WNW 2.9mph /  4.7km/h 6mph /  9.7km/h 72% 0in /  0.0mm 0 W/m2
02:00 71.1 °F /  21.7 °C 61.5 °F /  16.4 °C 29.9in /  1013.5hPa WSW 8.1mph /  13km/h 8mph /  12.9km/h 72% 0in /  0.0mm 0 W/m2
02:05 70.9 °F /  21.6 °C 61.9 °F /  16.6 °C 29.9in /  1013.5hPa West 6.9mph /  11.1km/h 7mph /  11.3km/h 73% 0in /  0.0mm 0 W/m2
02:10 70.5 °F /  21.4 °C 61.5 °F /  16.4 °C 29.9in /  1013.5hPa West 2.9mph /  4.7km/h 7mph /  11.3km/h 73% 0in /  0.0mm 0 W/m2
02:15 70.5 °F /  21.4 °C 61.5 °F /  16.4 °C 29.9in /  1013.5hPa WSW 4.9mph /  7.9km/h 7mph /  11.3km/h 73% 0in /  0.0mm 0 W/m2
02:20 70.3 °F /  21.3 °C 61.3 °F /  16.3 °C 29.9in /  1013.5hPa WNW 4mph /  6.4km/h 9mph /  14.5km/h 73% 0in /  0.0mm 0 W/m2
02:25 70.3 °F /  21.3 °C 61.3 °F /  16.3 °C 29.9in /  1013.5hPa WNW 4mph /  6.4km/h 8mph /  12.9km/h 73% 0in /  0.0mm 0 W/m2
02:30 70.3 °F /  21.3 °C 61.7 °F /  16.5 °C 29.9in /  1013.5hPa NNW 2.9mph /  4.7km/h 7mph /  11.3km/h 74% 0in /  0.0mm 0 W/m2
02:35 70.2 °F /  21.2 °C 61.5 °F /  16.4 °C 29.9in /  1013.5hPa WNW 2.9mph /  4.7km/h 8mph /  12.9km/h 74% 0in /  0.0mm 0 W/m2
02:40 70.2 °F /  21.2 °C 61.5 °F /  16.4 °C 29.9in /  1013.5hPa WSW 4mph /  6.4km/h 8mph /  12.9km/h 74% 0in /  0.0mm 0 W/m2
02:45 69.8 °F /  21 °C 61.5 °F /  16.4 °C 29.9in /  1013.5hPa West 6.9mph /  11.1km/h 8mph /  12.9km/h 75% 0in /  0.0mm 0 W/m2
02:50 69.6 °F /  20.9 °C 61.3 °F /  16.3 °C 29.9in /  1013.5hPa WNW 2.9mph /  4.7km/h 8mph /  12.9km/h 75% 0in /  0.0mm 0 W/m2
02:55 69.6 °F /  20.9 °C 61.3 °F /  16.3 °C 29.9in /  1013.9hPa West 4mph /  6.4km/h 6mph /  9.7km/h 75% 0in /  0.0mm 0 W/m2
03:00 69.6 °F /  20.9 °C 61.3 °F /  16.3 °C 29.9in /  1013.5hPa West 4mph /  6.4km/h 8mph /  12.9km/h 75% 0in /  0.0mm 0 W/m2
03:05 69.4 °F /  20.8 °C 61.2 °F /  16.2 °C 29.9in /  1013.5hPa West 4mph /  6.4km/h 5mph /  8km/h 75% 0in /  0.0mm 0 W/m2
03:10 69.4 °F /  20.8 °C 61.2 °F /  16.2 °C 29.9in /  1013.5hPa WNW 2.9mph /  4.7km/h 8mph /  12.9km/h 75% 0in /  0.0mm 0 W/m2
03:15 69.4 °F /  20.8 °C 61.2 °F /  16.2 °C 29.9in /  1013.5hPa West 2mph /  3.2km/h 3mph /  4.8km/h 75% 0in /  0.0mm 0 W/m2
03:20 69.4 °F /  20.8 °C 61.5 °F /  16.4 °C 29.9in /  1013.5hPa WNW 0.9mph /  1.4km/h 7mph /  11.3km/h 76% 0in /  0.0mm 0 W/m2
03:25 69.1 °F /  20.6 °C 61.5 °F /  16.4 °C 29.9in /  1013.5hPa WNW 2mph /  3.2km/h 2mph /  3.2km/h 77% 0in /  0.0mm 0 W/m2
03:30 68.5 °F /  20.3 °C 61.3 °F /  16.3 °C 29.9in /  1013.5hPa WNW 0.9mph /  1.4km/h 1mph /  1.6km/h 78% 0in /  0.0mm 0 W/m2
03:35 68.2 °F /  20.1 °C 61 °F /  16.1 °C 29.9in /  1013.5hPa Calm     78% 0in /  0.0mm 0 W/m2
03:40 67.8 °F /  19.9 °C 61 °F /  16.1 °C 29.9in /  1013.5hPa WNW 0.9mph /  1.4km/h 1mph /  1.6km/h 79% 0in /  0.0mm 0 W/m2
03:45 67.5 °F /  19.7 °C 60.8 °F /  16 °C 29.9in /  1013.5hPa Calm     79% 0in /  0.0mm 0 W/m2
03:50 67.1 °F /  19.5 °C 60.8 °F /  16 °C 29.9in /  1013.5hPa Calm     80% 0in /  0.0mm 0 W/m2
03:55 66.7 °F /  19.3 °C 60.8 °F /  16 °C 29.9in /  1013.5hPa Calm     81% 0in /  0.0mm 0 W/m2
04:00 66.4 °F /  19.1 °C 60.4 °F /  15.8 °C 29.9in /  1013.5hPa Calm     81% 0in /  0.0mm 0 W/m2
04:05 66 °F /  18.9 °C 60.4 °F /  15.8 °C 29.9in /  1013.5hPa Calm     82% 0in /  0.0mm 0 W/m2
04:10 65.8 °F /  18.8 °C 60.6 °F /  15.9 °C 29.9in /  1013.5hPa Calm     83% 0in /  0.0mm 0 W/m2
04:15 65.5 °F /  18.6 °C 60.3 °F /  15.7 °C 29.9in /  1013.5hPa Calm     83% 0in /  0.0mm 0 W/m2
04:21 65.1 °F /  18.4 °C 60.1 °F /  15.6 °C 29.9in /  1013.5hPa Calm     84% 0in /  0.0mm 0 W/m2
04:26 64.9 °F /  18.3 °C 59.9 °F /  15.5 °C 29.9in /  1013.5hPa Calm     84% 0in /  0.0mm 0 W/m2
04:31 64.8 °F /  18.2 °C 60.1 °F /  15.6 °C 29.9in /  1013.5hPa Calm     85% 0in /  0.0mm 0 W/m2
04:36 64.6 °F /  18.1 °C 60.3 °F /  15.7 °C 29.9in /  1013.5hPa Calm     86% 0in /  0.0mm 0 W/m2
04:41 64.6 °F /  18.1 °C 60.3 °F /  15.7 °C 29.9in /  1013.5hPa Calm     86% 0in /  0.0mm 0 W/m2
04:46 64.2 °F /  17.9 °C 59.9 °F /  15.5 °C 29.9in /  1013.5hPa Calm     86% 0in /  0.0mm 0 W/m2
04:51 64.2 °F /  17.9 °C 60.3 °F /  15.7 °C 29.9in /  1013.9hPa Calm     87% 0in /  0.0mm 0 W/m2
04:56 64 °F /  17.8 °C 60.1 °F /  15.6 °C 29.9in /  1013.5hPa Calm     87% 0in /  0.0mm 0 W/m2
05:01 63.9 °F /  17.7 °C 59.9 °F /  15.5 °C 29.9in /  1013.5hPa Calm     87% 0in /  0.0mm 0 W/m2
05:06 63.9 °F /  17.7 °C 59.9 °F /  15.5 °C 29.9in /  1013.9hPa Calm     87% 0in /  0.0mm 0 W/m2
05:11 63.7 °F /  17.6 °C 60.1 °F /  15.6 °C 29.9in /  1013.9hPa Calm     88% 0in /  0.0mm 0 W/m2
05:16 63.5 °F /  17.5 °C 59.9 °F /  15.5 °C 29.9in /  1013.9hPa Calm   1mph /  1.6km/h 88% 0in /  0.0mm 0 W/m2
05:21 63.3 °F /  17.4 °C 59.7 °F /  15.4 °C 29.9in /  1013.9hPa Calm     88% 0in /  0.0mm 0 W/m2
05:26 63.3 °F /  17.4 °C 60.1 °F /  15.6 °C 29.9in /  1013.9hPa Calm   1mph /  1.6km/h 89% 0in /  0.0mm 0 W/m2
05:31 63.1 °F /  17.3 °C 59.9 °F /  15.5 °C 30in /  1014.2hPa Calm     89% 0in /  0.0mm 0 W/m2
05:36 63.1 °F /  17.3 °C 59.9 °F /  15.5 °C 30in /  1014.2hPa Calm   1mph /  1.6km/h 89% 0in /  0.0mm 5 W/m2
05:41 63 °F /  17.2 °C 59.7 °F /  15.4 °C 30in /  1014.2hPa Calm     89% 0in /  0.0mm 7 W/m2
05:46 63 °F /  17.2 °C 59.7 °F /  15.4 °C 30in /  1014.2hPa Calm     89% 0in /  0.0mm 9 W/m2
05:51 63 °F /  17.2 °C 59.7 °F /  15.4 °C 30in /  1014.2hPa Calm     89% 0in /  0.0mm 11 W/m2
05:56 63 °F /  17.2 °C 59.9 °F /  15.5 °C 30in /  1014.2hPa Calm     90% 0in /  0.0mm 14 W/m2
06:01 62.8 °F /  17.1 °C 59.7 °F /  15.4 °C 30in /  1014.2hPa Calm     90% 0in /  0.0mm 14 W/m2
06:06 62.8 °F /  17.1 °C 59.7 °F /  15.4 °C 30in /  1014.2hPa Calm     90% 0in /  0.0mm 12 W/m2
06:11 63 °F /  17.2 °C 59.9 °F /  15.5 °C 30in /  1014.2hPa Calm     90% 0in /  0.0mm 19 W/m2
06:16 63 °F /  17.2 °C 59.9 °F /  15.5 °C 30in /  1014.2hPa WNW 0.9mph /  1.4km/h 1mph /  1.6km/h 90% 0in /  0.0mm 19 W/m2
06:21 63 °F /  17.2 °C 59.9 °F /  15.5 °C 30in /  1014.2hPa Calm     90% 0in /  0.0mm 21 W/m2
06:26 63.1 °F /  17.3 °C 60.1 °F /  15.6 °C 30in /  1014.2hPa Calm     90% 0in /  0.0mm 23 W/m2
06:31 63.3 °F /  17.4 °C 60.3 °F /  15.7 °C 30in /  1014.2hPa Calm   1mph /  1.6km/h 90% 0in /  0.0mm 21 W/m2
06:36 63.7 °F /  17.6 °C 60.4 °F /  15.8 °C 30in /  1014.2hPa Calm   1mph /  1.6km/h 89% 0in /  0.0mm 21 W/m2
06:41 63.7 °F /  17.6 °C 60.4 °F /  15.8 °C 30in /  1014.6hPa Calm     89% 0in /  0.0mm 23 W/m2
06:46 63.9 °F /  17.7 °C 60.6 °F /  15.9 °C 30in /  1014.6hPa Calm   1mph /  1.6km/h 89% 0in /  0.0mm 21 W/m2
06:51 64 °F /  17.8 °C 60.8 °F /  16 °C 30in /  1014.6hPa WNW 0.9mph /  1.4km/h 1mph /  1.6km/h 89% 0in /  0.0mm 21 W/m2
06:56 64.2 °F /  17.9 °C 60.6 °F /  15.9 °C 30in /  1014.6hPa Calm     88% 0in /  0.0mm 25 W/m2
07:01 64.2 °F /  17.9 °C 60.6 °F /  15.9 °C 30in /  1014.6hPa Calm     88% 0in /  0.0mm 28 W/m2
07:06 64.4 °F /  18 °C 60.8 °F /  16 °C 30in /  1014.6hPa Calm     88% 0in /  0.0mm 39 W/m2
07:11 64.6 °F /  18.1 °C 61 °F /  16.1 °C 30in /  1014.6hPa WNW 0.9mph /  1.4km/h 1mph /  1.6km/h 88% 0in /  0.0mm 39 W/m2
07:16 64.8 °F /  18.2 °C 60.8 °F /  16 °C 30in /  1014.6hPa West 2mph /  3.2km/h 2mph /  3.2km/h 87% 0in /  0.0mm 49 W/m2
07:21 64.9 °F /  18.3 °C 61 °F /  16.1 °C 30in /  1014.6hPa Calm     87% 0in /  0.0mm 54 W/m2
07:26 65.1 °F /  18.4 °C 61.2 °F /  16.2 °C 30in /  1014.6hPa Calm   1mph /  1.6km/h 87% 0in /  0.0mm 63 W/m2
07:31 65.3 °F /  18.5 °C 61.3 °F /  16.3 °C 30in /  1014.6hPa Calm     87% 0in /  0.0mm 69 W/m2
07:36 65.5 °F /  18.6 °C 61.2 °F /  16.2 °C 30in /  1014.6hPa Calm     86% 0in /  0.0mm 91 W/m2
07:41 65.8 °F /  18.8 °C 61.5 °F /  16.4 °C 30in /  1014.2hPa Calm     86% 0in /  0.0mm 223 W/m2
07:46 66.4 °F /  19.1 °C 62.1 °F /  16.7 °C 30in /  1014.2hPa West 0.9mph /  1.4km/h 1mph /  1.6km/h 86% 0in /  0.0mm 274 W/m2
07:51 67.3 °F /  19.6 °C 62.6 °F /  17 °C 30in /  1014.2hPa North 2mph /  3.2km/h 2mph /  3.2km/h 85% 0in /  0.0mm 304 W/m2
07:56 68.4 °F /  20.2 °C 63 °F /  17.2 °C 30in /  1014.2hPa Calm   2mph /  3.2km/h 83% 0in /  0.0mm 346 W/m2
08:01 69.3 °F /  20.7 °C 63.1 °F /  17.3 °C 30in /  1014.2hPa NW 0.9mph /  1.4km/h 2mph /  3.2km/h 81% 0in /  0.0mm 348 W/m2
08:06 70.3 °F /  21.3 °C 63.5 °F /  17.5 °C 30in /  1014.2hPa WSW 2mph /  3.2km/h 3mph /  4.8km/h 79% 0in /  0.0mm 350 W/m2
08:11 71.2 °F /  21.8 °C 63.7 °F /  17.6 °C 30in /  1014.2hPa Calm   3mph /  4.8km/h 77% 0in /  0.0mm 186 W/m2
Juneau County Weather
Compliments of Weather Underground - 2 mb